createdAt,value
2017-12-02T00:01:08.614Z,-5.7
2017-12-02T00:02:18.601Z,-5.68
2017-12-02T00:03:28.638Z,-5.78
2017-12-02T00:04:38.625Z,-5.82
2017-12-02T00:05:48.340Z,-5.78
2017-12-02T00:06:58.316Z,-5.82
2017-12-02T00:08:07.769Z,-5.78
2017-12-02T00:09:17.864Z,-5.85
2017-12-02T00:10:27.574Z,-5.77
2017-12-02T00:11:37.552Z,-5.87
2017-12-02T00:12:47.544Z,-5.95
2017-12-02T00:13:57.524Z,-5.94
2017-12-02T00:15:07.504Z,-5.95
2017-12-02T00:16:17.216Z,-5.94
2017-12-02T00:17:26.932Z,-6.05
2017-12-02T00:18:36.922Z,-6.02
2017-12-02T00:19:46.635Z,-6
2017-12-02T00:20:56.408Z,-6.05
2017-12-02T00:22:06.130Z,-6.1
2017-12-02T00:23:16.108Z,-6.15
2017-12-02T00:24:25.863Z,-6.21
2017-12-02T00:25:35.846Z,-6.3
2017-12-02T00:26:45.828Z,-6.38
2017-12-02T00:27:55.813Z,-6.51
2017-12-02T00:29:05.548Z,-6.56
2017-12-02T00:30:15.588Z,-6.66
2017-12-02T00:31:25.304Z,-6.63
2017-12-02T00:32:35.286Z,-6.58
2017-12-02T00:33:45.262Z,-6.64
2017-12-02T00:34:55.242Z,-6.51
2017-12-02T00:36:04.952Z,-6.63
2017-12-02T00:37:14.719Z,-6.46
2017-12-02T00:38:24.699Z,-6.51
2017-12-02T00:39:34.408Z,-6.39
2017-12-02T00:40:44.115Z,-6.49
2017-12-02T00:41:54.091Z,-6.39
2017-12-02T00:43:03.801Z,-6.52
2017-12-02T00:44:13.514Z,-6.44
2017-12-02T00:45:23.498Z,-6.31
2017-12-02T00:46:33.474Z,-6.2
2017-12-02T00:47:43.452Z,-6.23
2017-12-02T00:48:53.429Z,-6.21
2017-12-02T00:50:03.187Z,-6.12
2017-12-02T00:51:12.897Z,-6.1
2017-12-02T00:52:22.875Z,-6.03
2017-12-02T00:53:32.853Z,-5.92
2017-12-02T00:54:42.833Z,-5.92
2017-12-02T00:55:52.881Z,-5.74
2017-12-02T00:57:02.600Z,-5.77
2017-12-02T00:58:12.577Z,-5.74
2017-12-02T00:59:22.561Z,-5.67
2017-12-02T01:00:32.540Z,-5.68
2017-12-02T01:01:42.256Z,-5.7
2017-12-02T01:02:51.967Z,-5.71
2017-12-02T01:04:01.683Z,-5.74
2017-12-02T01:05:11.398Z,-5.64
2017-12-02T01:06:21.112Z,-5.67
2017-12-02T01:07:30.299Z,-5.64
2017-12-02T01:08:40.273Z,-5.6
2017-12-02T01:09:50.258Z,-5.5
2017-12-02T01:10:59.976Z,-5.5
2017-12-02T01:12:09.688Z,-5.34
2017-12-02T01:13:19.407Z,-5.45
2017-12-02T01:14:29.117Z,-5.39
2017-12-02T01:15:39.161Z,-5.34
2017-12-02T01:16:49.140Z,-5.37
2017-12-02T01:17:58.852Z,-5.32
2017-12-02T01:19:08.818Z,-5.35
2017-12-02T01:20:18.794Z,-5.25
2017-12-02T01:21:28.563Z,-5.25
2017-12-02T01:22:38.275Z,-5.25
2017-12-02T01:23:48.259Z,-5.12
2017-12-02T01:24:58.233Z,-5.2
2017-12-02T01:26:08.286Z,-5.2
2017-12-02T01:27:18.267Z,-5.2
2017-12-02T01:28:28.318Z,-5.23
2017-12-02T01:29:38.301Z,-5.3
2017-12-02T01:30:48.285Z,-5.13
2017-12-02T01:31:58.265Z,-5.28
2017-12-02T01:33:07.976Z,-5.31
2017-12-02T01:34:17.956Z,-5.21
2017-12-02T01:35:27.945Z,-5.27
2017-12-02T01:36:37.925Z,-5.28
2017-12-02T01:37:47.909Z,-5.23
2017-12-02T01:38:57.945Z,-5.27
2017-12-02T01:40:07.659Z,-5.21
2017-12-02T01:41:17.643Z,-5.23
2017-12-02T01:42:27.626Z,-5.28
2017-12-02T01:43:37.612Z,-5.17
2017-12-02T01:44:47.325Z,-5.19
2017-12-02T01:45:57.037Z,-5.19
2017-12-02T01:47:06.754Z,-5.2
2017-12-02T01:48:16.470Z,-5.2
2017-12-02T01:49:26.450Z,-5.2
2017-12-02T01:50:36.159Z,-5.2
2017-12-02T01:51:45.870Z,-5.2
2017-12-02T01:52:55.852Z,-5.23
2017-12-02T01:54:05.867Z,-5.2
2017-12-02T01:55:15.843Z,-5.23
2017-12-02T01:56:25.829Z,-5.16
2017-12-02T01:57:35.544Z,-5.16
2017-12-02T01:58:45.253Z,-5.13
2017-12-02T01:59:55.235Z,-5.16
2017-12-02T02:01:04.955Z,-5.16
2017-12-02T02:02:15.488Z,-5.09
2017-12-02T02:03:25.467Z,-5.1
2017-12-02T02:04:35.446Z,-5.19
2017-12-02T02:05:45.421Z,-5.13
2017-12-02T02:06:54.602Z,-5.19
2017-12-02T02:08:04.580Z,-5.19
2017-12-02T02:09:14.572Z,-5.21
2017-12-02T02:10:24.558Z,-5.23
2017-12-02T02:11:34.533Z,-5.13
2017-12-02T02:12:44.290Z,-5.13
2017-12-02T02:13:54.280Z,-5.12
2017-12-02T02:15:03.997Z,-5.1
2017-12-02T02:16:13.983Z,-5.16
2017-12-02T02:17:23.961Z,-5.19
2017-12-02T02:18:33.951Z,-5.1
2017-12-02T02:19:43.929Z,-5.13
2017-12-02T02:20:53.908Z,-5.1
2017-12-02T02:22:03.632Z,-5.1
2017-12-02T02:23:13.348Z,-5.16
2017-12-02T02:24:23.065Z,-5.12
2017-12-02T02:25:33.039Z,-5.09
2017-12-02T02:26:43.017Z,-5.2
2017-12-02T02:27:53.001Z,-5.23
2017-12-02T02:29:02.981Z,-5.19
2017-12-02T02:30:12.983Z,-5.12
2017-12-02T02:31:22.962Z,-5.19
2017-12-02T02:32:32.941Z,-5.19
2017-12-02T02:33:42.933Z,-5.19
2017-12-02T02:34:52.927Z,-5.21
2017-12-02T02:36:02.644Z,-5.12
2017-12-02T02:37:12.696Z,-5.1
2017-12-02T02:38:22.409Z,-5.13
2017-12-02T02:39:32.448Z,-5.13
2017-12-02T02:40:42.440Z,-5
2017-12-02T02:41:52.437Z,-5.09
2017-12-02T02:43:02.419Z,-5.05
2017-12-02T02:44:12.412Z,-5.1
2017-12-02T02:45:22.135Z,-5.02
2017-12-02T02:46:33.854Z,-5.13
2017-12-02T02:47:43.856Z,-5.02
2017-12-02T02:48:53.845Z,-5.01
2017-12-02T02:50:03.823Z,-5.01
2017-12-02T02:51:13.812Z,-5.09
2017-12-02T02:52:23.811Z,-5.09
2017-12-02T02:53:33.797Z,-5.13
2017-12-02T02:54:43.780Z,-5.13
2017-12-02T02:55:53.841Z,-5.1
2017-12-02T02:57:03.559Z,-5.09
2017-12-02T02:58:13.271Z,-5.19
2017-12-02T02:59:23.252Z,-5.1
2017-12-02T03:00:33.227Z,-5.1
2017-12-02T03:01:43.212Z,-5.06
2017-12-02T03:02:53.189Z,-5.12
2017-12-02T03:04:03.169Z,-5.09
2017-12-02T03:05:12.884Z,-5.12
2017-12-02T03:06:22.874Z,-5.05
2017-12-02T03:07:32.912Z,-5.06
2017-12-02T03:08:42.901Z,-4.94
2017-12-02T03:09:52.878Z,-4.95
2017-12-02T03:11:02.860Z,-4.92
2017-12-02T03:12:12.837Z,-4.91
2017-12-02T03:13:22.552Z,-4.83
2017-12-02T03:14:32.529Z,-4.88
2017-12-02T03:15:42.528Z,-4.84
2017-12-02T03:16:52.243Z,-4.91
2017-12-02T03:18:02.231Z,-4.87
2017-12-02T03:19:11.952Z,-4.83
2017-12-02T03:20:21.932Z,-4.84
2017-12-02T03:21:31.649Z,-4.8
2017-12-02T03:22:41.635Z,-4.77
2017-12-02T03:23:51.614Z,-4.73
2017-12-02T03:25:01.590Z,-4.67
2017-12-02T03:26:11.305Z,-4.53
2017-12-02T03:27:21.290Z,-4.58
2017-12-02T03:28:31.276Z,-4.45
2017-12-02T03:29:41.262Z,-4.41
2017-12-02T03:30:51.261Z,-4.37
2017-12-02T03:32:00.717Z,-4.31
2017-12-02T03:33:10.711Z,-4.31
2017-12-02T03:34:20.688Z,-4.4
2017-12-02T03:35:30.680Z,-4.44
2017-12-02T03:36:40.663Z,-4.4
2017-12-02T03:37:50.375Z,-4.33
2017-12-02T03:39:00.351Z,-4.37
2017-12-02T03:40:10.334Z,-4.4
2017-12-02T03:41:20.322Z,-4.41
2017-12-02T03:42:30.302Z,-4.4
2017-12-02T03:43:40.024Z,-4.44
2017-12-02T03:44:50.011Z,-4.47
2017-12-02T03:45:59.991Z,-4.4
2017-12-02T03:47:09.702Z,-4.47
2017-12-02T03:48:19.684Z,-4.44
2017-12-02T03:49:29.663Z,-4.38
2017-12-02T03:50:39.700Z,-4.59
2017-12-02T03:51:49.684Z,-4.49
2017-12-02T03:52:59.662Z,-4.56
2017-12-02T03:54:09.376Z,-4.56
2017-12-02T03:55:19.360Z,-4.53
2017-12-02T03:56:29.341Z,-4.55
2017-12-02T03:57:39.328Z,-4.52
2017-12-02T03:58:49.056Z,-4.52
2017-12-02T03:59:59.040Z,-4.38
2017-12-02T04:03:41.071Z,-4.53
2017-12-02T04:04:51.052Z,-4.52
2017-12-02T04:06:00.765Z,-4.52
2017-12-02T04:07:10.746Z,-4.44
2017-12-02T04:08:20.731Z,-4.47
2017-12-02T04:09:30.709Z,-4.41
2017-12-02T04:10:40.425Z,-4.44
2017-12-02T04:11:50.412Z,-4.45
2017-12-02T04:13:00.134Z,-4.4
2017-12-02T04:14:09.592Z,-4.45
2017-12-02T04:15:19.574Z,-4.4
2017-12-02T04:16:29.289Z,-4.41
2017-12-02T04:17:39.267Z,-4.41
2017-12-02T04:18:49.246Z,-4.4
2017-12-02T04:19:59.225Z,-4.33
2017-12-02T04:21:09.204Z,-4.33
2017-12-02T04:22:19.190Z,-4.27
2017-12-02T04:23:29.188Z,-4.24
2017-12-02T04:24:39.175Z,-4.33
2017-12-02T04:25:49.155Z,-4.26
2017-12-02T04:26:59.136Z,-4.19
2017-12-02T04:28:08.851Z,-4.19
2017-12-02T04:29:18.829Z,-4.3
2017-12-02T04:30:28.896Z,-4.19
2017-12-02T04:31:38.878Z,-4.23
2017-12-02T04:32:48.857Z,-4.2
2017-12-02T04:33:58.837Z,-4.17
2017-12-02T04:35:08.830Z,-4.08
2017-12-02T04:36:18.809Z,-4.09
2017-12-02T04:37:28.794Z,-4.01
2017-12-02T04:38:38.506Z,-3.91
2017-12-02T04:39:48.485Z,-3.91
2017-12-02T04:40:58.469Z,-3.94
2017-12-02T04:42:08.180Z,-3.85
2017-12-02T04:43:18.168Z,-4.01
2017-12-02T04:44:28.163Z,-3.95
2017-12-02T04:45:38.196Z,-3.87
2017-12-02T04:46:48.185Z,-3.99
2017-12-02T04:47:58.162Z,-4.02
2017-12-02T04:49:08.140Z,-4.04
2017-12-02T04:50:18.125Z,-4.06
2017-12-02T04:51:28.118Z,-4.05
2017-12-02T04:52:38.103Z,-4.08
2017-12-02T04:53:48.083Z,-4.19
2017-12-02T04:54:57.796Z,-4.14
2017-12-02T04:56:07.509Z,-4.14
2017-12-02T04:57:17.498Z,-4.12
2017-12-02T04:58:27.485Z,-4.17
2017-12-02T04:59:37.468Z,-4.14
2017-12-02T05:00:47.454Z,-4.17
2017-12-02T05:01:57.434Z,-4.13
2017-12-02T05:03:07.147Z,-4.22
2017-12-02T05:04:17.126Z,-4.14
2017-12-02T05:05:27.106Z,-4.17
2017-12-02T05:06:37.087Z,-4.2
2017-12-02T05:07:47.070Z,-4.14
2017-12-02T05:08:57.050Z,-4.19
2017-12-02T05:10:06.763Z,-4.17
2017-12-02T05:11:16.478Z,-4.22
2017-12-02T05:12:26.455Z,-4.16
2017-12-02T05:13:36.179Z,-4.14
2017-12-02T05:14:46.156Z,-4.26
2017-12-02T05:15:56.140Z,-4.16
2017-12-02T05:17:06.122Z,-4.17
2017-12-02T05:18:16.107Z,-4.12
2017-12-02T05:19:26.093Z,-4.12
2017-12-02T05:20:35.805Z,-4.2
2017-12-02T05:21:45.784Z,-4.19
2017-12-02T05:22:55.770Z,-4.09
2017-12-02T05:24:05.750Z,-4.13
2017-12-02T05:25:15.728Z,-4.14
2017-12-02T05:26:25.445Z,-4.16
2017-12-02T05:27:35.424Z,-4.16
2017-12-02T05:28:45.402Z,-4.19
2017-12-02T05:29:55.174Z,-4.23
2017-12-02T05:31:04.890Z,-4.14
2017-12-02T05:32:14.869Z,-4.23
2017-12-02T05:33:24.587Z,-4.24
2017-12-02T05:34:34.567Z,-4.23
2017-12-02T05:35:44.285Z,-4.22
2017-12-02T05:36:54.265Z,-4.33
2017-12-02T05:38:04.257Z,-4.27
2017-12-02T05:39:13.969Z,-4.33
2017-12-02T05:40:23.948Z,-4.4
2017-12-02T05:41:33.935Z,-4.4
2017-12-02T05:42:45.682Z,-4.45
2017-12-02T05:43:55.665Z,-4.41
2017-12-02T05:45:05.659Z,-4.49
2017-12-02T05:46:15.654Z,-4.53
2017-12-02T05:47:25.367Z,-4.51
2017-12-02T05:48:35.354Z,-4.52
2017-12-02T05:49:45.404Z,-4.58
2017-12-02T05:50:55.380Z,-4.56
2017-12-02T05:52:05.373Z,-4.59
2017-12-02T05:53:15.353Z,-4.59
2017-12-02T05:54:25.333Z,-4.58
2017-12-02T05:55:35.325Z,-4.61
2017-12-02T05:56:45.310Z,-4.59
2017-12-02T05:57:55.296Z,-4.56
2017-12-02T05:59:04.744Z,-4.59
2017-12-02T06:00:14.724Z,-4.55
2017-12-02T06:01:24.714Z,-4.49
2017-12-02T06:02:34.424Z,-4.44
2017-12-02T06:03:44.404Z,-4.38
2017-12-02T06:04:54.379Z,-4.33
2017-12-02T06:06:04.090Z,-4.3
2017-12-02T06:07:14.068Z,-4.3
2017-12-02T06:08:24.046Z,-4.26
2017-12-02T06:09:34.020Z,-4.42
2017-12-02T06:10:43.758Z,-4.27
2017-12-02T06:11:53.486Z,-4.31
2017-12-02T06:13:03.467Z,-4.3
2017-12-02T06:14:13.441Z,-4.33
2017-12-02T06:15:23.417Z,-4.31
2017-12-02T06:16:33.400Z,-4.26
2017-12-02T06:17:43.113Z,-4.42
2017-12-02T06:18:53.099Z,-4.38
2017-12-02T06:20:02.811Z,-4.49
2017-12-02T06:21:12.265Z,-4.47
2017-12-02T06:22:22.254Z,-4.38
2017-12-02T06:23:32.288Z,-4.37
2017-12-02T06:24:42.264Z,-4.3
2017-12-02T06:25:52.250Z,-4.31
2017-12-02T06:27:01.981Z,-4.34
2017-12-02T06:28:11.958Z,-4.23
2017-12-02T06:29:21.936Z,-4.27
2017-12-02T06:30:31.927Z,-4.14
2017-12-02T06:31:41.380Z,-4.19
2017-12-02T06:32:51.116Z,-4.16
2017-12-02T06:34:00.828Z,-4.16
2017-12-02T06:35:10.806Z,-4.2
2017-12-02T06:36:20.790Z,-4.17
2017-12-02T06:37:30.777Z,-4.22
2017-12-02T06:38:40.754Z,-4.23
2017-12-02T06:39:50.732Z,-4.17
2017-12-02T06:41:00.713Z,-4.23
2017-12-02T06:42:10.423Z,-4.23
2017-12-02T06:43:20.407Z,-4.2
2017-12-02T06:44:30.390Z,-4.14
2017-12-02T06:45:40.369Z,-4.19
2017-12-02T06:46:50.355Z,-4.24
2017-12-02T06:48:00.331Z,-4.23
2017-12-02T06:49:10.061Z,-4.24
2017-12-02T06:50:19.776Z,-4.24
2017-12-02T06:51:29.761Z,-4.33
2017-12-02T06:52:39.793Z,-4.31
2017-12-02T06:53:49.248Z,-4.34
2017-12-02T06:54:59.229Z,-4.3
2017-12-02T06:56:08.997Z,-4.31
2017-12-02T06:57:18.980Z,-4.26
2017-12-02T06:58:28.689Z,-4.22
2017-12-02T06:59:38.720Z,-4.31
2017-12-02T07:00:48.489Z,-4.35
2017-12-02T07:01:58.466Z,-4.3
2017-12-02T07:03:08.448Z,-4.24
2017-12-02T07:04:18.168Z,-4.23
2017-12-02T07:05:28.147Z,-4.14
2017-12-02T07:06:38.128Z,-4.19
2017-12-02T07:07:47.844Z,-4.17
2017-12-02T07:08:57.837Z,-4.19
2017-12-02T07:10:07.814Z,-4.16
2017-12-02T07:11:17.786Z,-4.13
2017-12-02T07:12:27.497Z,-4.09
2017-12-02T07:13:37.478Z,-4.14
2017-12-02T07:14:47.202Z,-4.23
2017-12-02T07:15:57.190Z,-4.24
2017-12-02T07:17:06.642Z,-4.14
2017-12-02T07:18:16.684Z,-4.19
2017-12-02T07:19:26.663Z,-4.22
2017-12-02T07:20:36.373Z,-4.05
2017-12-02T07:21:46.083Z,-3.99
2017-12-02T07:22:55.796Z,-3.98
2017-12-02T07:24:05.509Z,-3.99
2017-12-02T07:25:15.484Z,-4.04
2017-12-02T07:26:25.459Z,-3.9
2017-12-02T07:27:35.436Z,-3.98
2017-12-02T07:28:45.148Z,-4.04
2017-12-02T07:29:55.127Z,-4.05
2017-12-02T07:31:05.107Z,-4.04
2017-12-02T07:32:15.136Z,-4.01
2017-12-02T07:33:25.114Z,-4.01
2017-12-02T07:34:35.107Z,-3.98
2017-12-02T07:35:45.090Z,-3.9
2017-12-02T07:36:55.077Z,-3.88
2017-12-02T07:38:05.066Z,-4.04
2017-12-02T07:39:15.053Z,-3.88
2017-12-02T07:40:25.029Z,-3.9
2017-12-02T07:41:35.007Z,-3.88
2017-12-02T07:42:44.984Z,-3.88
2017-12-02T07:43:54.967Z,-3.95
2017-12-02T07:45:04.959Z,-3.91
2017-12-02T07:46:14.677Z,-3.84
2017-12-02T07:47:24.656Z,-3.77
2017-12-02T07:48:34.644Z,-3.75
2017-12-02T07:49:44.629Z,-3.85
2017-12-02T07:50:54.342Z,-3.81
2017-12-02T07:52:04.060Z,-3.77
2017-12-02T07:53:13.773Z,-3.71
2017-12-02T07:54:23.755Z,-3.75
2017-12-02T07:55:33.731Z,-3.74
2017-12-02T07:56:43.712Z,-3.75
2017-12-02T07:57:53.688Z,-3.77
2017-12-02T07:59:03.669Z,-3.74
2017-12-02T08:00:13.648Z,-3.69
2017-12-02T08:01:23.670Z,-3.74
2017-12-02T08:02:33.382Z,-3.69
2017-12-02T08:03:43.360Z,-3.66
2017-12-02T08:04:53.350Z,-3.71
2017-12-02T08:06:03.383Z,-3.68
2017-12-02T08:07:13.091Z,-3.59
2017-12-02T08:08:25.321Z,-3.69
2017-12-02T08:09:35.305Z,-3.62
2017-12-02T08:10:45.022Z,-3.51
2017-12-02T08:11:55.001Z,-3.48
2017-12-02T08:13:04.720Z,-3.43
2017-12-02T08:14:14.731Z,-3.5
2017-12-02T08:15:24.709Z,-3.48
2017-12-02T08:16:34.695Z,-3.5
2017-12-02T08:17:44.691Z,-3.44
2017-12-02T08:18:54.674Z,-3.5
2017-12-02T08:20:04.391Z,-3.43
2017-12-02T08:21:14.427Z,-3.41
2017-12-02T08:22:24.407Z,-3.43
2017-12-02T08:23:34.384Z,-3.36
2017-12-02T08:24:44.359Z,-3.38
2017-12-02T08:25:54.337Z,-3.22
2017-12-02T08:27:04.053Z,-3.25
2017-12-02T08:28:14.032Z,-3.27
2017-12-02T08:29:23.477Z,-3.09
2017-12-02T08:30:33.466Z,-3.17
2017-12-02T08:31:43.443Z,-3.14
2017-12-02T08:32:53.419Z,-3.15
2017-12-02T08:34:03.397Z,-3.2
2017-12-02T08:35:13.117Z,-3.2
2017-12-02T08:36:23.096Z,-3.07
2017-12-02T08:37:33.074Z,-3.19
2017-12-02T08:38:43.055Z,-3.2
2017-12-02T08:39:53.036Z,-3.07
2017-12-02T08:41:02.797Z,-3.11
2017-12-02T08:42:12.780Z,-3.15
2017-12-02T08:43:22.786Z,-3.15
2017-12-02T08:44:32.775Z,-3.2
2017-12-02T08:45:42.752Z,-3.2
2017-12-02T08:46:52.729Z,-3.17
2017-12-02T08:48:02.710Z,-3.08
2017-12-02T08:49:12.430Z,-3.09
2017-12-02T08:50:22.410Z,-2.98
2017-12-02T08:51:32.396Z,-2.99
2017-12-02T08:52:42.377Z,-2.96
2017-12-02T08:53:52.364Z,-3.04
2017-12-02T08:55:02.081Z,-2.94
2017-12-02T08:56:12.070Z,-2.99
2017-12-02T08:57:22.052Z,-2.99
2017-12-02T08:58:32.033Z,-2.93
2017-12-02T08:59:42.024Z,-2.89
2017-12-02T09:00:51.746Z,-2.86
2017-12-02T09:02:01.730Z,-2.84
2017-12-02T09:03:11.778Z,-2.83
2017-12-02T09:04:21.240Z,-2.89
2017-12-02T09:05:31.267Z,-2.89
2017-12-02T09:06:41.249Z,-2.84
2017-12-02T09:07:51.226Z,-2.87
2017-12-02T09:09:01.202Z,-2.83
2017-12-02T09:10:10.924Z,-2.84
2017-12-02T09:11:20.913Z,-2.87
2017-12-02T09:12:30.632Z,-2.84
2017-12-02T09:13:40.608Z,-2.89
2017-12-02T09:14:50.583Z,-2.91
2017-12-02T09:16:00.568Z,-2.9
2017-12-02T09:17:10.324Z,-2.89
2017-12-02T09:18:20.046Z,-2.94
2017-12-02T09:19:29.763Z,-2.9
2017-12-02T09:20:39.751Z,-2.89
2017-12-02T09:21:49.730Z,-2.76
2017-12-02T09:22:59.459Z,-2.76
2017-12-02T09:24:09.490Z,-2.84
2017-12-02T09:25:19.471Z,-2.75
2017-12-02T09:26:29.464Z,-2.7
2017-12-02T09:27:39.452Z,-2.66
2017-12-02T09:28:49.430Z,-2.73
2017-12-02T09:29:59.152Z,-2.66
2017-12-02T09:31:09.133Z,-2.63
2017-12-02T09:32:19.117Z,-2.68
2017-12-02T09:33:29.168Z,-2.7
2017-12-02T09:34:39.166Z,-2.76
2017-12-02T09:35:49.151Z,-2.63
2017-12-02T09:36:58.868Z,-2.58
2017-12-02T09:38:08.585Z,-2.7
2017-12-02T09:39:18.564Z,-2.7
2017-12-02T09:40:28.557Z,-2.65
2017-12-02T09:41:38.541Z,-2.69
2017-12-02T09:42:48.526Z,-2.69
2017-12-02T09:43:58.512Z,-2.66
2017-12-02T09:45:08.300Z,-2.65
2017-12-02T09:46:18.288Z,-2.62
2017-12-02T09:47:28.282Z,-2.54
2017-12-02T09:48:38.008Z,-2.51
2017-12-02T09:49:47.987Z,-2.58
2017-12-02T09:50:57.439Z,-2.52
2017-12-02T09:52:06.645Z,-2.51
2017-12-02T09:53:16.361Z,-2.5
2017-12-02T09:54:26.342Z,-2.52
2017-12-02T09:55:36.329Z,-2.45
2017-12-02T09:56:46.308Z,-2.42
2017-12-02T09:57:56.043Z,-2.45
2017-12-02T09:59:05.499Z,-2.39
2017-12-02T10:00:15.490Z,-2.39
2017-12-02T10:01:25.482Z,-2.36
2017-12-02T10:02:35.287Z,-2.4
2017-12-02T10:03:44.965Z,-2.55
2017-12-02T10:04:54.945Z,-2.36
2017-12-02T10:06:04.395Z,-2.44
2017-12-02T10:07:14.378Z,-2.42
2017-12-02T10:08:24.358Z,-2.4
2017-12-02T10:09:34.341Z,-2.44
2017-12-02T10:10:44.318Z,-2.34
2017-12-02T10:11:54.299Z,-2.36
2017-12-02T10:13:03.758Z,-2.26
2017-12-02T10:14:13.515Z,-2.26
2017-12-02T10:15:23.511Z,-2.23
2017-12-02T10:16:33.531Z,-2.22
2017-12-02T10:17:43.254Z,-2.22
2017-12-02T10:18:53.241Z,-2.23
2017-12-02T10:20:03.235Z,-2.2
2017-12-02T10:21:12.963Z,-2.17
2017-12-02T10:22:22.944Z,-2.25
2017-12-02T10:23:32.926Z,-2.23
2017-12-02T10:24:42.916Z,-2.14
2017-12-02T10:25:52.980Z,-2.18
2017-12-02T10:27:02.698Z,-2.22
2017-12-02T10:28:12.681Z,-2.14
2017-12-02T10:29:22.672Z,-2.08
2017-12-02T10:30:32.656Z,-2.02
2017-12-02T10:31:42.648Z,-1.93
2017-12-02T10:32:52.362Z,-1.9
2017-12-02T10:34:02.082Z,-1.87
2017-12-02T10:35:12.069Z,-1.89
2017-12-02T10:36:21.527Z,-1.72
2017-12-02T10:37:31.512Z,-1.76
2017-12-02T10:38:41.499Z,-1.68
2017-12-02T10:39:51.213Z,-1.64
2017-12-02T10:41:01.192Z,-1.54
2017-12-02T10:42:10.911Z,-1.57
2017-12-02T10:43:20.913Z,-1.51
2017-12-02T10:44:30.893Z,-1.53
2017-12-02T10:45:40.939Z,-1.54
2017-12-02T10:46:50.658Z,-1.68
2017-12-02T10:48:00.648Z,-1.53
2017-12-02T10:49:10.626Z,-1.63
2017-12-02T10:50:20.340Z,-1.68
2017-12-02T10:51:30.329Z,-1.58
2017-12-02T10:52:40.311Z,-1.66
2017-12-02T10:53:50.299Z,-1.75
2017-12-02T10:55:00.297Z,-1.63
2017-12-02T10:56:09.735Z,-1.72
2017-12-02T10:57:19.716Z,-1.66
2017-12-02T10:58:29.698Z,-1.57
2017-12-02T10:59:39.678Z,-1.66
2017-12-02T11:00:49.668Z,-1.64
2017-12-02T11:01:59.658Z,-1.71
2017-12-02T11:03:09.430Z,-1.6
2017-12-02T11:04:19.413Z,-1.63
2017-12-02T11:05:29.131Z,-1.56
2017-12-02T11:06:39.109Z,-1.5
2017-12-02T11:07:49.091Z,-1.57
2017-12-02T11:08:59.075Z,-1.53
2017-12-02T11:10:08.789Z,-1.57
2017-12-02T11:11:18.790Z,-1.53
2017-12-02T11:12:28.508Z,-1.56
2017-12-02T11:13:38.500Z,-1.57
2017-12-02T11:14:48.479Z,-1.56
2017-12-02T11:15:58.470Z,-1.56
2017-12-02T11:17:08.450Z,-1.4
2017-12-02T11:18:18.502Z,-1.48
2017-12-02T11:19:28.494Z,-1.53
2017-12-02T11:20:38.473Z,-1.51
2017-12-02T11:21:48.456Z,-1.56
2017-12-02T11:22:58.436Z,-1.51
2017-12-02T11:24:08.417Z,-1.46
2017-12-02T11:25:18.392Z,-1.61
2017-12-02T11:26:28.377Z,-1.71
2017-12-02T11:27:38.097Z,-1.71
2017-12-02T11:28:48.090Z,-1.74
2017-12-02T11:29:57.802Z,-1.71
2017-12-02T11:31:07.785Z,-1.6
2017-12-02T11:32:17.782Z,-1.74
2017-12-02T11:33:27.817Z,-1.78
2017-12-02T11:34:37.804Z,-1.78
2017-12-02T11:35:47.788Z,-1.89
2017-12-02T11:36:57.029Z,-1.99
2017-12-02T11:38:07.016Z,-2.15
2017-12-02T11:39:17.000Z,-2.15
2017-12-02T11:40:26.980Z,-2.13
2017-12-02T11:41:36.990Z,-2.1
2017-12-02T11:42:46.710Z,-2.13
2017-12-02T11:43:56.701Z,-2.2
2017-12-02T11:45:06.750Z,-2.28
2017-12-02T11:46:16.515Z,-2.39
2017-12-02T11:47:26.265Z,-2.18
2017-12-02T11:48:36.246Z,-2.34
2017-12-02T11:49:46.231Z,-2.37
2017-12-02T11:50:55.944Z,-2.4
2017-12-02T11:52:05.394Z,-2.36
2017-12-02T11:53:15.383Z,-2.34
2017-12-02T11:54:24.901Z,-2.4
2017-12-02T11:55:34.889Z,-2.39
2017-12-02T11:56:44.884Z,-2.34
2017-12-02T11:57:54.882Z,-2.33
2017-12-02T11:59:04.605Z,-2.28
2017-12-02T12:00:14.340Z,-2.34
2017-12-02T12:01:24.339Z,-2.33
2017-12-02T12:02:34.325Z,-2.2
2017-12-02T12:03:44.308Z,-2.28
2017-12-02T12:04:54.024Z,-2.14
2017-12-02T12:06:03.748Z,-2.25
2017-12-02T12:07:13.467Z,-2.13
2017-12-02T12:08:23.518Z,-2.04
2017-12-02T12:09:33.237Z,-2
2017-12-02T12:10:43.232Z,-1.87
2017-12-02T12:11:53.274Z,-1.86
2017-12-02T12:13:02.730Z,-1.86
2017-12-02T12:14:12.500Z,-1.94
2017-12-02T12:15:22.222Z,-1.93
2017-12-02T12:16:31.945Z,-1.89
2017-12-02T12:17:41.930Z,-1.87
2017-12-02T12:18:51.911Z,-1.81
2017-12-02T12:20:01.627Z,-1.75
2017-12-02T12:21:11.084Z,-1.78
2017-12-02T12:22:21.072Z,-1.79
2017-12-02T12:23:31.059Z,-1.72
2017-12-02T12:24:41.044Z,-1.75
2017-12-02T12:25:51.027Z,-1.75
2017-12-02T12:27:01.009Z,-1.75
2017-12-02T12:28:11.006Z,-1.81
2017-12-02T12:29:20.727Z,-1.72
2017-12-02T12:30:30.720Z,-1.76
2017-12-02T12:31:40.704Z,-1.69
2017-12-02T12:32:50.419Z,-1.66
2017-12-02T12:34:00.417Z,-1.64
2017-12-02T12:35:10.148Z,-1.6
2017-12-02T12:36:20.130Z,-1.63
2017-12-02T12:37:30.111Z,-1.6
2017-12-02T12:38:40.095Z,-1.66
2017-12-02T12:39:50.153Z,-1.76
2017-12-02T12:41:00.171Z,-1.86
2017-12-02T12:42:10.157Z,-1.9
2017-12-02T12:43:20.148Z,-1.87
2017-12-02T12:44:30.133Z,-1.97
2017-12-02T12:45:40.118Z,-1.99
2017-12-02T12:46:49.840Z,-2.05
2017-12-02T12:47:59.822Z,-2
2017-12-02T12:49:09.807Z,-1.99
2017-12-02T12:50:19.528Z,-2.07
2017-12-02T12:51:29.512Z,-2.04
2017-12-02T12:52:39.495Z,-2.05
2017-12-02T12:53:48.944Z,-2.05
2017-12-02T12:54:58.941Z,-2.02
2017-12-02T12:56:08.392Z,-2.15
2017-12-02T12:57:18.373Z,-2.22
2017-12-02T12:58:28.362Z,-2.28
2017-12-02T12:59:38.352Z,-2.26
2017-12-02T13:00:48.337Z,-2.26
2017-12-02T13:01:57.789Z,-2.37
2017-12-02T13:03:07.780Z,-2.36
2017-12-02T13:04:17.761Z,-2.39
2017-12-02T13:05:27.747Z,-2.37
2017-12-02T13:06:37.735Z,-2.39
2017-12-02T13:07:47.450Z,-2.26
2017-12-02T13:08:57.173Z,-2.28
2017-12-02T13:10:06.891Z,-2.36
2017-12-02T13:11:16.871Z,-2.36
2017-12-02T13:12:26.854Z,-2.33
2017-12-02T13:13:36.843Z,-2.26
2017-12-02T13:14:46.826Z,-2.2
2017-12-02T13:15:56.806Z,-2.32
2017-12-02T13:17:05.994Z,-2.29
2017-12-02T13:18:15.976Z,-2.39
2017-12-02T13:19:25.960Z,-2.45
2017-12-02T13:20:35.950Z,-2.48
2017-12-02T13:21:45.931Z,-2.47
2017-12-02T13:22:57.913Z,-2.48
2017-12-02T13:24:07.640Z,-2.42
2017-12-02T13:25:17.623Z,-2.44
2017-12-02T13:26:27.647Z,-2.51
2017-12-02T13:27:37.364Z,-2.51
2017-12-02T13:28:47.347Z,-2.54
2017-12-02T13:29:57.058Z,-2.54
2017-12-02T13:31:06.838Z,-2.61
2017-12-02T13:32:16.824Z,-2.55
2017-12-02T13:33:26.816Z,-2.55
2017-12-02T13:34:36.265Z,-2.54
2017-12-02T13:35:46.267Z,-2.58
2017-12-02T13:36:55.988Z,-2.54
2017-12-02T13:38:05.999Z,-2.62
2017-12-02T13:39:15.714Z,-2.55
2017-12-02T13:40:25.717Z,-2.62
2017-12-02T13:41:35.721Z,-2.7
2017-12-02T13:42:45.445Z,-2.66
2017-12-02T13:43:55.432Z,-2.65
2017-12-02T13:45:04.614Z,-2.72
2017-12-02T13:46:14.334Z,-2.65
2017-12-02T13:47:24.055Z,-2.62
2017-12-02T13:48:33.772Z,-2.63
2017-12-02T13:49:43.493Z,-2.54
2017-12-02T13:50:53.523Z,-2.54
2017-12-02T13:52:03.507Z,-2.45
2017-12-02T13:53:13.487Z,-2.36
2017-12-02T13:54:23.473Z,-2.42
2017-12-02T13:55:33.462Z,-2.28
2017-12-02T13:56:43.178Z,-2.29
2017-12-02T13:57:52.895Z,-2.25
2017-12-02T13:59:02.348Z,-2.2
2017-12-02T14:00:12.061Z,-2.22
2017-12-02T14:01:22.042Z,-2.25
2017-12-02T14:02:32.022Z,-2.28
2017-12-02T14:03:41.739Z,-2.48
2017-12-02T14:04:51.462Z,-2.45
2017-12-02T14:06:01.443Z,-2.45
2017-12-02T14:07:11.162Z,-2.4
2017-12-02T14:08:21.153Z,-2.37
2017-12-02T14:09:31.134Z,-2.5
2017-12-02T14:10:41.132Z,-2.51
2017-12-02T14:11:51.122Z,-2.5
2017-12-02T14:13:01.105Z,-2.52
2017-12-02T14:14:10.823Z,-2.48
2017-12-02T14:15:20.805Z,-2.48
2017-12-02T14:16:30.791Z,-2.34
2017-12-02T14:17:40.777Z,-2.26
2017-12-02T14:18:50.498Z,-2.36
2017-12-02T14:20:00.475Z,-2.32
2017-12-02T14:21:10.469Z,-2.22
2017-12-02T14:22:20.184Z,-2.29
2017-12-02T14:23:30.166Z,-2.36
2017-12-02T14:24:40.144Z,-2.39
2017-12-02T14:25:49.864Z,-2.47
2017-12-02T14:26:59.845Z,-2.4
2017-12-02T14:28:09.297Z,-2.4
2017-12-02T14:29:19.014Z,-2.39
2017-12-02T14:30:28.733Z,-2.5
2017-12-02T14:31:38.716Z,-2.51
2017-12-02T14:32:48.451Z,-2.57
2017-12-02T14:33:58.432Z,-2.62
2017-12-02T14:35:07.617Z,-2.57
2017-12-02T14:36:17.076Z,-2.55
2017-12-02T14:37:27.064Z,-2.57
2017-12-02T14:38:37.088Z,-2.52
2017-12-02T14:39:47.071Z,-2.54
2017-12-02T14:40:56.790Z,-2.54
2017-12-02T14:42:06.773Z,-2.45
2017-12-02T14:43:16.754Z,-2.42
2017-12-02T14:44:26.755Z,-2.39
2017-12-02T14:45:36.478Z,-2.45
2017-12-02T14:46:46.197Z,-2.52
2017-12-02T14:47:56.182Z,-2.51
2017-12-02T14:49:05.630Z,-2.63
2017-12-02T14:50:15.612Z,-2.69
2017-12-02T14:51:25.593Z,-2.8
2017-12-02T14:52:35.360Z,-2.7
2017-12-02T14:53:45.348Z,-2.78
2017-12-02T14:54:55.325Z,-2.89
2017-12-02T14:56:05.321Z,-2.9
2017-12-02T14:57:15.301Z,-2.87
2017-12-02T14:58:25.299Z,-2.89
2017-12-02T14:59:35.280Z,-2.81
2017-12-02T15:00:45.296Z,-2.76
2017-12-02T15:01:55.282Z,-2.89
2017-12-02T15:03:04.999Z,-2.93
2017-12-02T15:04:14.985Z,-2.84
2017-12-02T15:05:24.965Z,-2.87
2017-12-02T15:06:34.949Z,-2.87
2017-12-02T15:07:44.933Z,-2.83